Time;durP1;ratioP1;P1;durP2;ratioP2;P2;SDS_P1;SDS_P2;PMS_P1;PMS_P2;Temp;Humidity;BMP_temperature;BMP_pressure;BME280_temperature;BME280_humidity;BME280_pressure;Samples;Min_cycle;Max_cycle;Signal;HPM_P1;HPM_P2
2021/12/13 00:01:42;;;;;;;7.53;4.70;;;;;;;5.94;71.87;101556.06;5046900;28;20399;-80
2021/12/13 00:04:10;;;;;;;8.27;4.95;;;;;;;5.99;72.42;101558.19;5050880;28;20449;-80
2021/12/13 00:06:43;;;;;;;6.85;4.90;;;;;;;5.98;71.46;101562.72;5041628;28;20399;-79
2021/12/13 00:09:16;;;;;;;6.63;4.60;;;;;;;6.02;71.79;101553.28;5047678;28;20787;-80
2021/12/13 00:11:46;;;;;;;6.55;4.78;;;;;;;6.02;71.58;101561.34;5056874;28;20411;-80
2021/12/13 00:14:14;;;;;;;10.55;4.88;;;;;;;6.02;71.44;101558.66;5037800;28;20762;-80
2021/12/13 00:16:44;;;;;;;6.75;4.55;;;;;;;6.03;72.26;101560.28;5036977;28;20407;-80
2021/12/13 00:19:14;;;;;;;6.45;5.10;;;;;;;6.05;72.03;101554.75;5037557;28;20401;-80
2021/12/13 00:21:44;;;;;;;13.95;5.55;;;;;;;6.06;71.53;101551.03;5035786;28;20395;-79
2021/12/13 00:24:20;;;;;;;8.97;4.90;;;;;;;6.06;71.82;101549.16;5032440;28;20407;-79
2021/12/13 00:26:49;;;;;;;6.97;4.57;;;;;;;6.02;71.90;101552.44;5035143;28;20379;-80
2021/12/13 00:29:16;;;;;;;5.83;4.70;;;;;;;6.01;71.94;101553.44;5044707;28;20451;-79
2021/12/13 00:31:48;;;;;;;5.95;4.88;;;;;;;6.03;71.82;101549.53;5036654;28;20403;-79
2021/12/13 00:34:22;;;;;;;10.40;5.05;;;;;;;5.99;71.43;101556.34;5038722;28;20480;-80
2021/12/13 00:36:55;;;;;;;6.70;4.50;;;;;;;5.97;72.09;101555.69;5047595;28;20423;-79
2021/12/13 00:39:26;;;;;;;7.50;4.88;;;;;;;5.98;72.07;101561.91;5039752;28;20401;-79
2021/12/13 00:41:51;;;;;;;7.43;4.63;;;;;;;5.96;72.55;101567.44;5040565;28;20759;-80
2021/12/13 00:44:29;;;;;;;10.73;4.90;;;;;;;5.95;72.41;101565.81;5045030;28;20413;-79
2021/12/13 00:46:56;;;;;;;6.35;4.65;;;;;;;5.97;72.32;101562.91;5051162;28;20401;-80
2021/12/13 00:49:26;;;;;;;7.23;5.07;;;;;;;5.99;72.56;101564.41;5036231;28;20399;-80
2021/12/13 00:51:56;;;;;;;6.45;4.57;;;;;;;6.02;72.02;101569.41;5031812;28;20403;-80
2021/12/13 00:54:33;;;;;;;7.22;4.55;;;;;;;5.96;72.58;101566.66;5040464;28;20757;-80
2021/12/13 00:56:59;;;;;;;6.53;4.25;;;;;;;5.98;72.92;101561.91;5036750;28;20505;-80
2021/12/13 00:59:48;;;;;;;7.40;4.57;;;;;;;5.95;72.83;101571.19;5041398;28;20425;-80
2021/12/13 01:02:26;;;;;;;6.32;4.50;;;;;;;5.98;72.67;101565.44;5037174;28;20410;-80
2021/12/13 01:05:00;;;;;;;8.90;4.88;;;;;;;5.97;72.98;101557.53;5041844;28;20404;-80
2021/12/13 01:08:02;;;;;;;8.65;4.85;;;;;;;5.97;72.66;101558.38;5047125;28;20967;-80
2021/12/13 01:10:55;;;;;;;7.13;5.25;;;;;;;5.98;72.66;101556.50;5037052;28;20430;-80
2021/12/13 01:13:41;;;;;;;7.95;4.60;;;;;;;5.97;73.20;101560.22;5055306;28;20419;-80
2021/12/13 01:16:33;;;;;;;9.30;4.88;;;;;;;5.94;72.90;101556.06;5043842;28;20406;-80
2021/12/13 01:19:25;;;;;;;6.65;4.40;;;;;;;5.97;73.17;101566.44;5033784;28;20401;-80
2021/12/13 01:22:33;;;;;;;6.28;4.90;;;;;;;5.99;72.66;101563.56;5032281;28;20379;-80
2021/12/13 01:25:22;;;;;;;6.80;4.60;;;;;;;5.96;72.78;101561.25;5046385;28;20401;-80
2021/12/13 01:28:02;;;;;;;5.95;4.90;;;;;;;5.93;72.27;101559.75;5038930;28;20922;-80
2021/12/13 01:30:34;;;;;;;6.23;5.00;;;;;;;5.92;72.96;101559.97;5037046;28;20937;-80
2021/12/13 01:33:04;;;;;;;6.38;5.07;;;;;;;5.88;72.51;101567.56;5038391;28;20489;-80
2021/12/13 01:35:32;;;;;;;6.10;4.65;;;;;;;5.89;72.97;101563.03;5049329;28;20410;-79
2021/12/13 01:38:03;;;;;;;7.45;5.07;;;;;;;5.86;72.59;101574.97;5037165;28;20406;-80
2021/12/13 01:40:32;;;;;;;6.93;5.20;;;;;;;5.91;72.82;101571.72;5042745;28;20413;-80
2021/12/13 01:43:02;;;;;;;6.65;4.63;;;;;;;5.95;71.99;101575.72;5035436;28;20944;-80
2021/12/13 01:45:32;;;;;;;7.18;4.63;;;;;;;5.94;72.08;101571.34;5041740;28;20391;-79
2021/12/13 01:47:59;;;;;;;5.88;4.28;;;;;;;5.95;72.07;101573.03;5035744;28;20525;-79
2021/12/13 01:50:41;;;;;;;7.47;4.80;;;;;;;5.95;72.55;101573.88;5047111;28;20397;-80
2021/12/13 01:53:07;;;;;;;8.48;4.57;;;;;;;5.91;72.20;101571.72;5043144;28;20929;-80
2021/12/13 01:55:38;;;;;;;6.97;4.60;;;;;;;5.90;73.03;101570.06;5031872;28;20509;-80
2021/12/13 01:58:26;;;;;;;7.32;4.65;;;;;;;5.93;73.32;101573.22;5050611;28;20401;-80
2021/12/13 02:01:19;;;;;;;5.95;4.55;;;;;;;5.95;74.05;101570.34;5032065;28;20510;-80
2021/12/13 02:03:54;;;;;;;7.50;4.70;;;;;;;5.87;74.59;101573.13;5034864;28;20408;-80
2021/12/13 02:06:36;;;;;;;5.78;4.78;;;;;;;5.85;75.51;101578.69;5035156;28;20410;-80
2021/12/13 02:09:12;;;;;;;7.38;4.85;;;;;;;5.86;75.29;101574.16;5033527;28;20465;-80
2021/12/13 02:11:38;;;;;;;7.00;4.43;;;;;;;5.81;75.45;101582.75;5035225;28;20409;-80
2021/12/13 02:14:14;;;;;;;8.05;4.53;;;;;;;5.85;75.63;101573.28;5035820;28;20430;-80
2021/12/13 02:17:07;;;;;;;7.72;4.10;;;;;;;5.82;76.14;101573.66;5038396;28;20405;-80
2021/12/13 02:20:00;;;;;;;9.25;4.57;;;;;;;5.76;76.49;101577.13;5048673;28;20476;-80
2021/12/13 02:22:44;;;;;;;8.82;5.30;;;;;;;5.76;76.14;101569.84;5045937;28;20436;-80
2021/12/13 02:25:47;;;;;;;8.77;4.37;;;;;;;5.76;76.32;101583.28;5040161;28;20967;-80
2021/12/13 02:28:22;;;;;;;8.40;4.50;;;;;;;5.74;76.12;101585.34;5035477;28;20470;-80
2021/12/13 02:30:55;;;;;;;7.80;4.72;;;;;;;5.76;76.46;101585.19;5031685;28;20405;-80
2021/12/13 02:33:43;;;;;;;6.55;4.50;;;;;;;5.76;76.60;101588.69;5046000;28;20487;-80
2021/12/13 02:36:15;;;;;;;6.10;4.97;;;;;;;5.73;76.48;101589.06;5044254;28;20399;-80
2021/12/13 02:38:43;;;;;;;6.63;4.65;;;;;;;5.74;76.71;101589.91;5036756;28;20426;-80
2021/12/13 02:41:09;;;;;;;6.90;4.82;;;;;;;5.68;76.77;101593.31;5030720;28;20912;-79
2021/12/13 02:43:41;;;;;;;6.45;4.85;;;;;;;5.69;76.74;101592.31;5040961;28;20403;-80
2021/12/13 02:46:07;;;;;;;8.30;5.10;;;;;;;5.68;76.60;101598.72;5040686;28;20395;-80
2021/12/13 02:48:46;;;;;;;6.05;4.45;;;;;;;5.78;76.13;101601.13;5034177;28;20387;-80
2021/12/13 02:51:23;;;;;;;6.43;4.57;;;;;;;5.76;75.97;101598.63;5047436;28;20402;-80
2021/12/13 02:53:59;;;;;;;7.15;4.65;;;;;;;5.77;76.09;101602.97;5037904;28;20414;-80
2021/12/13 02:56:28;;;;;;;8.02;4.95;;;;;;;5.81;75.92;101598.06;5042182;28;20436;-80
2021/12/13 02:58:56;;;;;;;8.32;4.95;;;;;;;5.80;75.94;101597.22;5049381;28;20395;-80
2021/12/13 03:01:35;;;;;;;8.60;4.80;;;;;;;5.80;76.22;101596.38;5048291;28;20407;-80
2021/12/13 03:04:05;;;;;;;7.03;5.03;;;;;;;5.84;76.01;101603.06;5042594;28;20415;-80
2021/12/13 03:06:35;;;;;;;6.30;5.03;;;;;;;5.84;75.90;101605.75;5033266;28;20403;-80
2021/12/13 03:09:07;;;;;;;10.95;5.70;;;;;;;5.82;75.90;101608.63;5035422;28;20423;-80
2021/12/13 03:11:34;;;;;;;9.63;5.23;;;;;;;5.71;76.10;101603.72;5046499;28;20479;-80
2021/12/13 03:14:16;;;;;;;6.65;5.00;;;;;;;5.69;76.38;101603.06;5033866;28;20423;-80
2021/12/13 03:16:50;;;;;;;8.43;5.53;;;;;;;5.67;76.26;101605.09;5050390;28;20432;-80
2021/12/13 03:19:29;;;;;;;8.27;5.32;;;;;;;5.67;76.40;101595.19;5038396;28;20397;-80
2021/12/13 03:22:21;;;;;;;7.90;4.97;;;;;;;5.70;76.60;101596.66;5042628;28;20801;-80
2021/12/13 03:25:20;;;;;;;10.55;5.32;;;;;;;5.72;76.08;101592.78;5033391;28;20449;-79
2021/12/13 03:28:02;;;;;;;7.03;5.03;;;;;;;5.75;75.75;101599.63;5047605;28;20555;-80
2021/12/13 03:30:56;;;;;;;8.18;5.57;;;;;;;5.76;76.31;101602.13;5046543;28;20478;-80
2021/12/13 03:33:31;;;;;;;11.45;5.50;;;;;;;5.81;75.50;101600.75;5032588;28;20411;-80
2021/12/13 03:35:59;;;;;;;9.63;5.57;;;;;;;5.76;76.33;101591.38;5053443;28;20402;-80
2021/12/13 03:38:30;;;;;;;8.13;5.40;;;;;;;5.82;75.47;101586.28;5048038;28;20405;-80
2021/12/13 03:41:03;;;;;;;10.45;6.10;;;;;;;5.85;74.91;101589.44;5060542;28;20463;-80
2021/12/13 03:43:37;;;;;;;7.28;5.15;;;;;;;5.89;75.06;101592.63;5033489;28;20394;-80
2021/12/13 03:46:06;;;;;;;11.23;5.83;;;;;;;5.91;74.61;101588.72;5044907;28;20979;-80
2021/12/13 03:48:33;;;;;;;10.00;6.05;;;;;;;5.91;73.98;101590.56;5048222;28;21361;-80
2021/12/13 03:51:04;;;;;;;8.38;5.65;;;;;;;5.91;74.12;101591.41;5038373;28;20500;-79
2021/12/13 03:53:33;;;;;;;7.85;5.63;;;;;;;5.92;74.57;101589.56;5040088;28;20407;-80
2021/12/13 03:56:07;;;;;;;7.68;6.32;;;;;;;5.90;74.48;101597.78;5039116;28;20462;-80
2021/12/13 03:58:39;;;;;;;9.30;6.53;;;;;;;5.88;75.12;101596.31;5031457;28;21070;-80
2021/12/13 04:01:19;;;;;;;7.82;6.00;;;;;;;5.88;75.77;101607.09;5032369;28;20426;-80
2021/12/13 04:03:46;;;;;;;8.20;5.57;;;;;;;5.85;75.49;101610.97;5034475;28;20894;-80
2021/12/13 04:06:17;;;;;;;8.70;5.57;;;;;;;5.86;75.37;101617.22;5043988;28;20826;-80
2021/12/13 04:08:48;;;;;;;8.20;5.68;;;;;;;5.84;75.35;101605.75;5034406;28;20391;-79
2021/12/13 04:11:15;;;;;;;8.33;5.93;;;;;;;5.86;74.68;101606.44;5034908;28;20410;-79
2021/12/13 04:13:46;;;;;;;8.15;5.60;;;;;;;5.87;74.30;101600.03;5041092;28;20417;-80
2021/12/13 04:16:36;;;;;;;8.60;5.57;;;;;;;5.83;74.96;101594.16;5032880;28;20921;-80
2021/12/13 04:19:06;;;;;;;8.25;5.10;;;;;;;5.80;75.88;101596.38;5032512;28;20866;-80
2021/12/13 04:21:40;;;;;;;8.40;5.93;;;;;;;5.73;76.18;101593.59;5032456;28;20912;-79
2021/12/13 04:24:12;;;;;;;9.02;5.85;;;;;;;5.68;76.52;101594.16;5035529;28;20403;-79
2021/12/13 04:26:51;;;;;;;6.00;4.85;;;;;;;5.67;76.74;101602.41;5035016;28;20411;-80
2021/12/13 04:29:25;;;;;;;7.82;5.45;;;;;;;5.67;76.59;101594.34;5039389;28;22857;-80
2021/12/13 04:31:51;;;;;;;6.57;5.00;;;;;;;5.65;76.58;101599.09;5049772;28;20405;-79
2021/12/13 04:34:20;;;;;;;7.67;5.63;;;;;;;5.63;76.88;101590.38;5049860;28;20421;-79
2021/12/13 04:36:47;;;;;;;7.88;5.22;;;;;;;5.63;76.88;101591.19;5032087;28;20402;-80
2021/12/13 04:39:27;;;;;;;11.23;5.70;;;;;;;5.62;77.16;101581.47;5039427;28;20455;-79
2021/12/13 04:41:59;;;;;;;10.63;5.05;;;;;;;5.64;76.75;101587.47;5039534;28;20418;-79
2021/12/13 04:44:35;;;;;;;7.68;4.88;;;;;;;5.66;76.57;101590.00;5028661;28;20438;-80
2021/12/13 04:47:09;;;;;;;7.35;4.90;;;;;;;5.65;77.12;101588.31;5048343;28;20428;-80
2021/12/13 04:49:38;;;;;;;6.03;5.05;;;;;;;5.55;77.28;101585.91;5048679;28;20406;-79
2021/12/13 04:52:07;;;;;;;5.25;4.55;;;;;;;5.56;77.54;101586.75;5033233;28;20387;-80
2021/12/13 04:54:37;;;;;;;6.35;5.05;;;;;;;5.57;77.45;101586.56;5042763;28;20413;-80
2021/12/13 04:57:03;;;;;;;8.73;5.28;;;;;;;5.58;77.88;101592.75;5046975;28;20395;-80
2021/12/13 04:59:29;;;;;;;9.63;5.57;;;;;;;5.59;77.39;101597.13;5031741;28;20418;-80
2021/12/13 05:01:58;;;;;;;7.70;5.72;;;;;;;5.61;77.33;101597.78;5034930;28;20893;-80
2021/12/13 05:04:24;;;;;;;6.03;5.35;;;;;;;5.63;77.41;101593.88;5037143;28;20427;-80
2021/12/13 05:06:51;;;;;;;7.97;5.20;;;;;;;5.62;77.32;101600.28;5038417;28;20756;-80
2021/12/13 05:09:20;;;;;;;6.63;5.35;;;;;;;5.63;77.23;101603.81;5035831;28;20419;-79
2021/12/13 05:11:52;;;;;;;8.40;5.32;;;;;;;5.62;77.42;101604.81;5040313;28;20406;-79
2021/12/13 05:14:36;;;;;;;7.72;5.25;;;;;;;5.61;77.16;101601.31;5044233;28;20405;-79
2021/12/13 05:17:12;;;;;;;8.32;5.20;;;;;;;5.64;77.68;101608.16;5059572;28;20722;-79
2021/12/13 05:19:42;;;;;;;6.10;5.03;;;;;;;5.68;77.38;101602.25;5034317;28;20407;-79
2021/12/13 05:22:11;;;;;;;6.45;5.03;;;;;;;5.73;76.87;101596.28;5040702;28;20399;-79
2021/12/13 05:24:44;;;;;;;6.80;5.03;;;;;;;5.79;76.04;101605.50;5031956;28;20392;-79
2021/12/13 05:27:16;;;;;;;8.07;4.70;;;;;;;5.82;76.02;101603.25;5035990;28;20478;-80
2021/12/13 05:29:49;;;;;;;6.68;5.00;;;;;;;5.78;76.42;101604.66;5033574;28;20885;-80
2021/12/13 05:32:25;;;;;;;9.13;5.35;;;;;;;5.74;76.73;101603.34;5030456;28;20779;-79
2021/12/13 05:34:54;;;;;;;9.50;5.25;;;;;;;5.80;76.38;101605.28;5057805;28;20756;-80
2021/12/13 05:37:20;;;;;;;7.63;4.90;;;;;;;5.83;75.99;101598.72;5036932;28;20402;-80
2021/12/13 05:40:05;;;;;;;9.03;5.50;;;;;;;5.82;76.41;101603.25;5042849;28;20476;-79
2021/12/13 05:42:37;;;;;;;6.47;5.03;;;;;;;5.78;76.78;101603.81;5033841;28;20411;-80
2021/12/13 05:45:04;;;;;;;9.00;5.25;;;;;;;5.70;77.36;101596.66;5040293;28;20504;-80
2021/12/13 05:47:30;;;;;;;12.93;5.50;;;;;;;5.63;77.52;101587.69;5041450;28;20397;-80
2021/12/13 05:49:55;;;;;;;7.53;5.13;;;;;;;5.57;77.57;101597.31;5036377;28;20481;-80
2021/12/13 05:52:29;;;;;;;11.17;6.00;;;;;;;5.51;77.77;101589.97;5044754;28;20399;-80
2021/12/13 05:55:00;;;;;;;10.97;5.87;;;;;;;5.43;78.07;101590.09;5031906;28;20821;-79
2021/12/13 05:57:34;;;;;;;10.63;6.17;;;;;;;5.37;78.04;101582.72;5041087;28;20401;-79
2021/12/13 06:00:06;;;;;;;9.75;7.15;;;;;;;5.33;77.89;101584.13;5033936;28;20414;-79
2021/12/13 06:02:55;;;;;;;7.13;5.90;;;;;;;5.31;78.00;101591.53;5035826;28;20934;-78
2021/12/13 06:05:25;;;;;;;9.03;5.50;;;;;;;5.26;77.74;101595.78;5031289;28;20403;-79
2021/12/13 06:07:59;;;;;;;8.98;5.63;;;;;;;5.23;77.81;101597.84;5031194;28;20870;-79
2021/12/13 06:10:45;;;;;;;10.32;6.95;;;;;;;5.21;78.36;101604.38;5044430;28;20422;-80
2021/12/13 06:13:22;;;;;;;11.43;7.68;;;;;;;5.20;78.71;101603.56;5031291;28;20407;-79
2021/12/13 06:15:48;;;;;;;15.60;11.00;;;;;;;5.20;78.21;101611.59;5032551;28;20403;-79
2021/12/13 06:18:18;;;;;;;11.00;8.83;;;;;;;5.22;78.25;101617.66;5033869;28;20480;-80
2021/12/13 06:20:50;;;;;;;13.90;8.57;;;;;;;5.24;78.39;101609.41;5045824;28;20395;-80
2021/12/13 06:23:28;;;;;;;11.15;7.32;;;;;;;5.27;78.17;101603.66;5042453;28;20523;-80
2021/12/13 06:25:59;;;;;;;8.93;5.40;;;;;;;5.24;78.08;101604.88;5040250;28;20401;-80
2021/12/13 06:28:29;;;;;;;9.60;6.13;;;;;;;5.25;78.20;101616.44;5043387;28;20916;-79
2021/12/13 06:31:07;;;;;;;7.57;6.20;;;;;;;5.23;78.09;101621.19;5042752;28;20395;-78
2021/12/13 06:33:54;;;;;;;9.33;7.50;;;;;;;5.19;78.09;101614.50;5040487;28;20445;-79
2021/12/13 06:36:48;;;;;;;11.20;7.28;;;;;;;5.14;78.25;101619.56;5040402;28;20920;-79
2021/12/13 06:39:26;;;;;;;13.87;8.13;;;;;;;5.08;78.91;101620.28;5038480;28;20415;-79
2021/12/13 06:42:01;;;;;;;17.60;9.73;;;;;;;5.01;78.58;101622.88;5034317;28;20419;-79
2021/12/13 06:44:36;;;;;;;10.83;8.50;;;;;;;4.97;78.62;101634.16;5037338;28;20437;-80
2021/12/13 06:47:06;;;;;;;11.82;8.77;;;;;;;4.91;79.04;101627.66;5046546;28;22249;-79
2021/12/13 06:49:39;;;;;;;15.77;9.35;;;;;;;4.86;79.33;101626.53;5047251;28;20396;-79
2021/12/13 06:52:13;;;;;;;11.25;9.32;;;;;;;4.82;79.40;101636.78;5037606;28;20480;-79
2021/12/13 06:54:55;;;;;;;11.50;8.88;;;;;;;4.79;79.89;101633.63;5040103;28;20438;-79
2021/12/13 06:57:31;;;;;;;16.58;10.85;;;;;;;4.75;79.78;101633.13;5043383;28;20897;-80
2021/12/13 07:00:00;;;;;;;14.88;9.82;;;;;;;4.78;80.13;101635.47;5041165;28;20455;-79
2021/12/13 07:02:36;;;;;;;18.38;10.98;;;;;;;4.79;80.97;101642.50;5043689;28;20459;-80
2021/12/13 07:05:04;;;;;;;23.83;12.70;;;;;;;4.84;80.57;101633.94;5036401;28;20391;-80
2021/12/13 07:07:38;;;;;;;25.30;14.50;;;;;;;4.92;80.20;101634.69;5039500;28;20393;-80
2021/12/13 07:10:15;;;;;;;27.70;15.07;;;;;;;4.99;80.44;101649.09;5041767;28;20416;-78
2021/12/13 07:12:50;;;;;;;20.08;14.18;;;;;;;5.07;80.17;101640.94;5049548;28;20459;-80
2021/12/13 07:15:27;;;;;;;19.70;14.20;;;;;;;5.14;80.03;101641.06;5033486;28;20890;-79
2021/12/13 07:18:05;;;;;;;20.00;12.47;;;;;;;5.18;80.13;101645.91;5040150;28;20489;-79
2021/12/13 07:21:03;;;;;;;18.20;10.98;;;;;;;5.24;79.67;101650.56;5059638;28;20418;-79
2021/12/13 07:23:52;;;;;;;16.73;10.82;;;;;;;5.28;79.99;101647.50;5036795;28;20410;-78
2021/12/13 07:26:35;;;;;;;21.25;12.45;;;;;;;5.31;79.67;101647.97;5041654;28;20735;-79
2021/12/13 07:29:27;;;;;;;22.35;12.93;;;;;;;5.32;79.72;101654.19;5042126;28;20421;-79
2021/12/13 07:32:27;;;;;;;18.88;12.10;;;;;;;5.36;80.34;101652.81;5044843;28;20386;-79
2021/12/13 07:35:01;;;;;;;18.67;11.07;;;;;;;5.38;80.31;101642.72;5047352;28;20409;-79
2021/12/13 07:37:59;;;;;;;18.13;11.18;;;;;;;5.42;80.15;101655.59;5053029;28;20405;-79
2021/12/13 07:40:42;;;;;;;15.82;10.15;;;;;;;5.45;80.26;101663.31;5052773;28;20437;-81
2021/12/13 07:43:26;;;;;;;14.83;9.33;;;;;;;5.46;80.43;101661.47;5039081;28;20466;-79
2021/12/13 07:46:13;;;;;;;17.73;10.30;;;;;;;5.48;79.85;101665.63;5034945;28;20418;-81
2021/12/13 07:48:41;;;;;;;15.10;10.60;;;;;;;5.47;80.37;101666.63;5035988;28;20635;-79
2021/12/13 07:51:15;;;;;;;15.77;10.60;;;;;;;5.54;80.39;101672.97;5034493;28;20894;-81
2021/12/13 07:53:52;;;;;;;18.67;10.70;;;;;;;5.65;80.51;101677.91;5050712;28;20420;-82
2021/12/13 07:56:29;;;;;;;17.57;11.30;;;;;;;5.64;80.52;101676.22;5038231;28;20904;-81
2021/12/13 07:59:14;;;;;;;16.48;10.88;;;;;;;5.66;80.52;101674.19;5041937;28;20448;-83
2021/12/13 08:01:48;;;;;;;20.73;12.70;;;;;;;5.66;81.00;101670.69;5045733;28;20405;-82
2021/12/13 08:04:17;;;;;;;21.60;12.82;;;;;;;5.66;80.83;101681.44;5054354;28;20400;-82
2021/12/13 08:06:53;;;;;;;21.92;14.27;;;;;;;5.61;81.55;101675.75;5042829;28;20401;-81
2021/12/13 08:09:24;;;;;;;24.63;14.50;;;;;;;5.66;81.58;101679.56;5033392;28;20445;-82
2021/12/13 08:12:12;;;;;;;18.45;13.57;;;;;;;5.74;81.08;101684.88;5039784;28;20409;-82
2021/12/13 08:14:41;;;;;;;20.48;13.52;;;;;;;5.84;80.87;101681.91;5042556;28;20475;-82
2021/12/13 08:17:13;;;;;;;20.83;14.25;;;;;;;5.89;80.94;101690.31;5035339;28;20384;-82
2021/12/13 08:19:39;;;;;;;24.48;14.57;;;;;;;5.93;80.92;101688.09;5046760;28;20398;-83
2021/12/13 08:22:19;;;;;;;22.35;15.45;;;;;;;5.94;80.95;101687.03;5046860;28;20430;-83
2021/12/13 08:24:48;;;;;;;25.92;15.35;;;;;;;5.90;80.87;101685.75;5040196;28;21004;-82
2021/12/13 08:27:27;;;;;;;22.60;15.43;;;;;;;5.82;82.02;101681.28;5045998;28;20859;-82
2021/12/13 08:30:06;;;;;;;27.63;14.68;;;;;;;5.94;81.54;101687.03;5041988;28;20469;-82
2021/12/13 08:32:32;;;;;;;24.03;15.03;;;;;;;5.96;81.38;101691.22;5033479;28;20478;-82
2021/12/13 08:34:59;;;;;;;24.60;15.07;;;;;;;6.10;81.27;101686.88;5040558;28;20422;-81
2021/12/13 08:37:32;;;;;;;21.95;14.57;;;;;;;6.10;81.34;101690.41;5032629;28;20498;-81
2021/12/13 08:40:10;;;;;;;20.10;14.52;;;;;;;6.05;81.79;101684.75;5044048;28;20745;-82
2021/12/13 08:42:40;;;;;;;25.20;16.20;;;;;;;6.07;81.93;101688.06;5037911;28;20426;-82
2021/12/13 08:45:24;;;;;;;25.40;16.10;;;;;;;6.17;81.78;101688.63;5035810;28;20438;-79
2021/12/13 08:47:54;;;;;;;24.63;15.90;;;;;;;6.25;81.46;101679.63;5037121;28;20405;-82
2021/12/13 08:50:25;;;;;;;24.35;15.38;;;;;;;6.49;80.65;101682.00;5043195;28;20424;-81
2021/12/13 08:53:00;;;;;;;24.02;14.90;;;;;;;6.64;79.69;101681.97;5037209;28;20499;-82
2021/12/13 08:55:31;;;;;;;26.17;15.43;;;;;;;6.73;79.56;101684.38;5039419;28;20415;-81
2021/12/13 08:58:18;;;;;;;22.30;13.68;;;;;;;6.92;79.02;101690.16;5038316;28;20398;-82
2021/12/13 09:00:50;;;;;;;26.93;13.90;;;;;;;7.07;78.73;101688.25;5044243;28;20492;-81
2021/12/13 09:03:22;;;;;;;18.05;12.70;;;;;;;7.10;78.60;101693.25;5039475;28;20501;-81
2021/12/13 09:05:53;;;;;;;20.27;13.35;;;;;;;7.01;78.46;101684.47;5035162;28;20399;-81
2021/12/13 09:08:43;;;;;;;23.52;12.95;;;;;;;7.11;78.14;101684.16;5041730;28;20506;-81
2021/12/13 09:11:17;;;;;;;18.55;12.23;;;;;;;7.24;78.36;101693.19;5033453;28;20407;-80
2021/12/13 09:13:59;;;;;;;23.58;15.27;;;;;;;7.30;77.84;101694.28;5037465;28;20403;-80
2021/12/13 09:17:06;;;;;;;19.98;12.40;;;;;;;7.32;77.67;101693.06;5044594;28;20405;-80
2021/12/13 09:19:47;;;;;;;17.90;11.38;;;;;;;7.39;77.43;101701.22;5033885;28;20398;-81
2021/12/13 09:22:40;;;;;;;18.85;12.43;;;;;;;7.46;77.74;101685.94;5036591;28;20424;-80
2021/12/13 09:25:32;;;;;;;16.88;11.73;;;;;;;7.24;78.37;101703.97;5035567;28;20429;-79
2021/12/13 09:28:10;;;;;;;17.27;11.15;;;;;;;7.40;78.22;101707.44;5038463;28;20397;-78
2021/12/13 09:30:58;;;;;;;20.83;12.10;;;;;;;7.59;77.81;101696.81;5032251;28;20410;-80
2021/12/13 09:33:50;;;;;;;17.35;10.85;;;;;;;7.57;78.22;101689.97;5032972;28;20916;-80
2021/12/13 09:36:23;;;;;;;15.60;10.50;;;;;;;7.51;78.43;101699.66;5028824;28;20413;-79
2021/12/13 09:39:06;;;;;;;17.33;10.40;;;;;;;7.51;78.79;101698.84;5034759;28;20390;-79
2021/12/13 09:42:04;;;;;;;13.32;9.75;;;;;;;7.72;78.37;101694.22;5044592;28;20840;-79
2021/12/13 09:44:51;;;;;;;14.47;10.40;;;;;;;7.95;77.58;101693.13;5039349;28;20484;-79
2021/12/13 09:47:31;;;;;;;17.17;10.10;;;;;;;8.12;76.61;101697.19;5043481;28;20444;-78
2021/12/13 09:49:56;;;;;;;12.97;8.87;;;;;;;8.19;76.09;101690.81;5048597;28;20385;-79
2021/12/13 09:52:36;;;;;;;9.90;8.23;;;;;;;8.49;75.95;101687.88;5049335;28;20761;-79
2021/12/13 09:55:12;;;;;;;12.55;8.35;;;;;;;8.77;75.54;101683.19;5052144;28;20447;-79
2021/12/13 09:57:49;;;;;;;11.45;9.13;;;;;;;9.35;74.37;101687.88;5049920;28;20401;-79
2021/12/13 10:00:21;;;;;;;12.60;8.20;;;;;;;9.80;72.20;101685.38;5052576;28;20411;-79
2021/12/13 10:02:51;;;;;;;12.43;8.50;;;;;;;9.76;71.54;101684.97;5050003;28;20400;-79
2021/12/13 10:05:23;;;;;;;11.57;8.80;;;;;;;9.72;71.45;101678.28;5045175;28;20532;-79
2021/12/13 10:07:52;;;;;;;16.70;9.15;;;;;;;9.58;71.62;101670.41;5036248;28;20421;-79
2021/12/13 10:10:31;;;;;;;14.85;8.82;;;;;;;9.44;71.98;101668.72;5034717;28;20395;-78
2021/12/13 10:13:02;;;;;;;10.90;8.00;;;;;;;9.29;72.12;101663.50;5045093;28;20443;-78
2021/12/13 10:15:36;;;;;;;10.93;8.20;;;;;;;9.14;72.41;101658.31;5040186;28;20496;-78
2021/12/13 10:18:08;;;;;;;11.50;7.80;;;;;;;9.09;72.02;101657.28;5037346;28;20420;-78
2021/12/13 10:20:38;;;;;;;12.18;8.32;;;;;;;8.98;72.93;101653.31;5045361;28;20434;-78
2021/12/13 10:23:10;;;;;;;9.85;7.78;;;;;;;8.98;72.61;101647.91;5037995;28;20395;-78
2021/12/13 10:25:39;;;;;;;10.30;7.43;;;;;;;9.14;73.15;101650.19;5045270;28;20418;-79
2021/12/13 10:28:09;;;;;;;13.68;8.18;;;;;;;9.27;72.42;101641.25;5041771;28;20405;-78
2021/12/13 10:30:51;;;;;;;10.93;7.30;;;;;;;9.50;71.90;101647.09;5041893;28;20395;-79
2021/12/13 10:33:19;;;;;;;10.75;8.00;;;;;;;9.49;70.99;101641.88;5045797;28;20980;-79
2021/12/13 10:35:49;;;;;;;11.90;8.37;;;;;;;9.46;71.23;101640.41;5046069;28;20781;-79
2021/12/13 10:38:22;;;;;;;9.45;7.05;;;;;;;9.64;71.08;101629.81;5034552;28;20407;-78
2021/12/13 10:41:17;;;;;;;9.73;7.15;;;;;;;9.57;71.13;101622.72;5042308;28;20419;-79
2021/12/13 10:43:47;;;;;;;10.25;7.40;;;;;;;9.27;71.59;101622.31;5040107;28;20439;-78
2021/12/13 10:46:21;;;;;;;8.77;7.40;;;;;;;9.35;71.57;101622.13;5047264;28;20403;-78
2021/12/13 10:48:54;;;;;;;11.27;7.80;;;;;;;9.46;71.20;101623.34;5047733;28;20914;-79
2021/12/13 10:51:24;;;;;;;9.90;7.32;;;;;;;9.30;71.43;101617.34;5065936;28;20390;-79
2021/12/13 10:53:52;;;;;;;10.23;7.18;;;;;;;9.16;72.04;101617.53;5034104;28;20403;-79
2021/12/13 10:56:22;;;;;;;9.48;7.07;;;;;;;8.91;73.14;101614.59;5038267;28;20469;-79
2021/12/13 10:58:50;;;;;;;10.03;8.03;;;;;;;8.68;73.59;101625.78;5034587;28;20395;-79
2021/12/13 11:01:19;;;;;;;16.05;8.13;;;;;;;8.47;74.87;101630.47;5040174;28;20465;-79
2021/12/13 11:03:46;;;;;;;10.75;7.78;;;;;;;8.24;76.09;101625.38;5036467;28;20403;-78
2021/12/13 11:06:15;;;;;;;8.70;7.80;;;;;;;8.27;76.08;101623.13;5039174;28;20407;-79
2021/12/13 11:08:43;;;;;;;10.68;7.80;;;;;;;8.53;76.00;101629.69;5038890;28;20404;-78
2021/12/13 11:11:19;;;;;;;11.57;8.23;;;;;;;8.78;74.90;101628.94;5033842;28;20398;-78
2021/12/13 11:13:49;;;;;;;13.52;8.18;;;;;;;9.05;74.11;101629.81;5054717;28;20411;-79
2021/12/13 11:16:22;;;;;;;8.85;6.95;;;;;;;9.39;73.37;101623.34;5047229;28;20811;-78
2021/12/13 11:18:48;;;;;;;9.93;7.63;;;;;;;9.60;72.65;101620.44;5033187;28;20407;-78
2021/12/13 11:21:17;;;;;;;8.25;6.97;;;;;;;9.69;72.20;101615.63;5044827;28;20443;-78
2021/12/13 11:23:42;;;;;;;19.40;7.30;;;;;;;9.81;72.12;101616.66;5043370;28;20439;-79
2021/12/13 11:26:14;;;;;;;12.47;7.53;;;;;;;9.89;71.79;101625.38;5047500;28;20410;-79
2021/12/13 11:28:40;;;;;;;9.45;6.57;;;;;;;10.02;71.31;101623.66;5039143;28;20405;-79
2021/12/13 11:31:42;;;;;;;9.32;7.50;;;;;;;9.92;71.87;101615.97;5040938;28;20405;-80
2021/12/13 11:34:45;;;;;;;9.10;7.13;;;;;;;9.80;72.44;101618.53;5042661;28;20409;-79
2021/12/13 11:37:39;;;;;;;10.55;7.45;;;;;;;9.73;72.40;101614.16;5056267;28;20923;-79
2021/12/13 11:40:25;;;;;;;16.27;10.40;;;;;;;9.65;73.11;101620.63;5037586;28;20909;-79
2021/12/13 11:43:13;;;;;;;10.60;8.77;;;;;;;9.53;73.83;101618.75;5040271;28;20468;-81
2021/12/13 11:46:30;;;;;;;14.85;10.30;;;;;;;9.43;74.11;101615.66;5035355;28;20407;-81
2021/12/13 11:49:13;;;;;;;15.38;11.02;;;;;;;9.28;74.69;101614.00;5033521;28;20395;-81
2021/12/13 11:52:10;;;;;;;18.60;11.45;;;;;;;9.35;75.08;101609.41;5040679;28;20402;-81
2021/12/13 11:55:06;;;;;;;15.60;10.52;;;;;;;9.58;74.56;101611.66;5036436;28;20901;-81
2021/12/13 11:58:05;;;;;;;13.23;9.40;;;;;;;9.74;73.68;101613.97;5045805;28;20422;-80
2021/12/13 12:00:42;;;;;;;14.82;8.27;;;;;;;9.86;73.39;101606.84;5032321;28;20395;-80
2021/12/13 12:03:43;;;;;;;11.65;8.15;;;;;;;9.90;72.83;101605.38;5037747;28;20399;-80
2021/12/13 12:06:46;;;;;;;15.55;9.95;;;;;;;9.80;73.36;101599.56;5040205;28;20956;-80
2021/12/13 12:09:21;;;;;;;14.63;10.45;;;;;;;9.83;73.74;101611.84;5032001;28;20401;-80